sensor_id;sensor_type;location;lat;lon;timestamp;pressure;altitude;pressure_sealevel;temperature;humidity
78623;BME280;67943;54.412;9.502;2023-02-28T00:02:35;103027.03;;;5.75;64.21
78623;BME280;67943;54.412;9.502;2023-02-28T00:07:37;103023.53;;;5.75;64.18
78623;BME280;67943;54.412;9.502;2023-02-28T00:12:40;103021.75;;;5.74;64.23
78623;BME280;67943;54.412;9.502;2023-02-28T00:17:43;103010.34;;;5.72;64.07
78623;BME280;67943;54.412;9.502;2023-02-28T00:22:46;103021.75;;;5.74;63.92
78623;BME280;67943;54.412;9.502;2023-02-28T00:27:48;103014.78;;;5.74;63.99
78623;BME280;67943;54.412;9.502;2023-02-28T00:32:51;103020.47;;;5.63;63.82
78623;BME280;67943;54.412;9.502;2023-02-28T00:37:53;103015.97;;;5.59;63.97
78623;BME280;67943;54.412;9.502;2023-02-28T00:42:54;103025.25;;;5.51;64.15
78623;BME280;67943;54.412;9.502;2023-02-28T00:47:57;103029.34;;;5.42;64.29
78623;BME280;67943;54.412;9.502;2023-02-28T00:52:59;103029.47;;;5.46;64.56
78623;BME280;67943;54.412;9.502;2023-02-28T00:58:00;103035.19;;;5.35;64.92
78623;BME280;67943;54.412;9.502;2023-02-28T01:03:03;103036.84;;;5.33;65.06
78623;BME280;67943;54.412;9.502;2023-02-28T01:08:04;103038.41;;;5.28;64.94
78623;BME280;67943;54.412;9.502;2023-02-28T01:13:06;103039.06;;;5.23;65.21
78623;BME280;67943;54.412;9.502;2023-02-28T01:18:09;103041.63;;;5.21;65.54
78623;BME280;67943;54.412;9.502;2023-02-28T01:23:11;103032.13;;;5.23;65.33
78623;BME280;67943;54.412;9.502;2023-02-28T01:28:12;103039.00;;;5.20;65.23
78623;BME280;67943;54.412;9.502;2023-02-28T01:33:15;103028.38;;;5.15;65.39
78623;BME280;67943;54.412;9.502;2023-02-28T01:38:16;103031.00;;;5.15;65.64
78623;BME280;67943;54.412;9.502;2023-02-28T01:43:22;103029.09;;;5.11;65.69
78623;BME280;67943;54.412;9.502;2023-02-28T01:48:27;103026.97;;;5.01;65.69
78623;BME280;67943;54.412;9.502;2023-02-28T01:53:33;103028.41;;;4.93;65.71
78623;BME280;67943;54.412;9.502;2023-02-28T01:58:36;103019.31;;;4.82;66.33
78623;BME280;67943;54.412;9.502;2023-02-28T02:03:39;103019.31;;;4.82;66.56
78623;BME280;67943;54.412;9.502;2023-02-28T02:08:41;103016.59;;;4.79;66.66
78623;BME280;67943;54.412;9.502;2023-02-28T02:13:54;103021.91;;;4.82;66.61
78623;BME280;67943;54.412;9.502;2023-02-28T02:19:14;103026.97;;;4.77;66.65
78623;BME280;67943;54.412;9.502;2023-02-28T02:24:46;103024.16;;;4.72;66.71
78623;BME280;67943;54.412;9.502;2023-02-28T02:30:09;103020.72;;;4.73;66.49
78623;BME280;67943;54.412;9.502;2023-02-28T02:35:22;103020.66;;;4.72;66.55
78623;BME280;67943;54.412;9.502;2023-02-28T02:40:30;103020.72;;;4.73;66.54
78623;BME280;67943;54.412;9.502;2023-02-28T02:45:37;103033.91;;;4.54;66.82
78623;BME280;67943;54.412;9.502;2023-02-28T02:50:44;103024.88;;;4.46;67.29
78623;BME280;67943;54.412;9.502;2023-02-28T02:55:49;103033.53;;;4.45;66.79
78623;BME280;67943;54.412;9.502;2023-02-28T03:00:56;103030.47;;;4.33;67.31
78623;BME280;67943;54.412;9.502;2023-02-28T03:06:01;103037.28;;;4.29;67.29
78623;BME280;67943;54.412;9.502;2023-02-28T03:11:05;103045.16;;;4.31;67.44
78623;BME280;67943;54.412;9.502;2023-02-28T03:16:29;103041.16;;;4.18;67.15
78623;BME280;67943;54.412;9.502;2023-02-28T03:21:38;103056.47;;;4.11;68.13
78623;BME280;67943;54.412;9.502;2023-02-28T03:26:44;103051.06;;;4.06;68.63
78623;BME280;67943;54.412;9.502;2023-02-28T03:31:50;103054.94;;;4.16;68.56
78623;BME280;67943;54.412;9.502;2023-02-28T03:37:00;103052.78;;;4.26;68.17
78623;BME280;67943;54.412;9.502;2023-02-28T03:42:06;103053.69;;;4.27;68.41
78623;BME280;67943;54.412;9.502;2023-02-28T03:47:12;103051.41;;;4.36;68.15
78623;BME280;67943;54.412;9.502;2023-02-28T03:52:18;103054.28;;;4.42;68.17
78623;BME280;67943;54.412;9.502;2023-02-28T03:57:27;103044.53;;;4.38;68.05
78623;BME280;67943;54.412;9.502;2023-02-28T04:02:33;103042.63;;;4.32;68.38
78623;BME280;67943;54.412;9.502;2023-02-28T04:07:37;103039.13;;;4.32;68.42
78623;BME280;67943;54.412;9.502;2023-02-28T04:12:38;103050.59;;;4.37;68.69
78623;BME280;67943;54.412;9.502;2023-02-28T04:17:39;103044.78;;;4.44;68.38
78623;BME280;67943;54.412;9.502;2023-02-28T04:22:42;103039.41;;;4.39;68.48
78623;BME280;67943;54.412;9.502;2023-02-28T04:27:44;103039.22;;;4.35;68.55
78623;BME280;67943;54.412;9.502;2023-02-28T04:32:45;103048.59;;;4.30;68.78
78623;BME280;67943;54.412;9.502;2023-02-28T04:37:48;103049.16;;;4.23;68.85
78623;BME280;67943;54.412;9.502;2023-02-28T04:42:49;103039.44;;;4.19;68.92
78623;BME280;67943;54.412;9.502;2023-02-28T04:47:51;103039.72;;;4.04;69.15
78623;BME280;67943;54.412;9.502;2023-02-28T04:52:56;103046.94;;;3.90;69.79
78623;BME280;67943;54.412;9.502;2023-02-28T04:57:57;103044.91;;;3.83;69.27
78623;BME280;67943;54.412;9.502;2023-02-28T05:02:59;103037.56;;;3.73;69.51
78623;BME280;67943;54.412;9.502;2023-02-28T05:08:02;103035.13;;;3.57;69.54
78623;BME280;67943;54.412;9.502;2023-02-28T05:13:05;103040.38;;;3.37;68.85
78623;BME280;67943;54.412;9.502;2023-02-28T05:18:08;103028.06;;;3.14;68.57
78623;BME280;67943;54.412;9.502;2023-02-28T05:23:12;103039.25;;;2.94;68.71
78623;BME280;67943;54.412;9.502;2023-02-28T05:28:14;103042.81;;;2.77;68.40
78623;BME280;67943;54.412;9.502;2023-02-28T05:33:15;103046.34;;;2.59;68.86
78623;BME280;67943;54.412;9.502;2023-02-28T05:38:18;103045.66;;;2.63;69.38
78623;BME280;67943;54.412;9.502;2023-02-28T05:43:20;103046.00;;;2.52;68.85
78623;BME280;67943;54.412;9.502;2023-02-28T05:48:21;103056.47;;;2.53;69.81
78623;BME280;67943;54.412;9.502;2023-02-28T05:53:24;103049.19;;;2.46;70.00
78623;BME280;67943;54.412;9.502;2023-02-28T05:58:27;103047.84;;;2.36;69.43
78623;BME280;67943;54.412;9.502;2023-02-28T06:03:30;103065.28;;;2.39;70.47
78623;BME280;67943;54.412;9.502;2023-02-28T06:08:33;103069.16;;;2.47;70.59
78623;BME280;67943;54.412;9.502;2023-02-28T06:13:35;103065.97;;;2.53;70.41
78623;BME280;67943;54.412;9.502;2023-02-28T06:18:36;103083.19;;;2.51;69.95
78623;BME280;67943;54.412;9.502;2023-02-28T06:23:39;103077.09;;;2.50;70.48
78623;BME280;67943;54.412;9.502;2023-02-28T06:28:41;103080.81;;;2.55;70.24
78623;BME280;67943;54.412;9.502;2023-02-28T06:33:43;103087.78;;;2.56;70.27
78623;BME280;67943;54.412;9.502;2023-02-28T06:38:46;103089.69;;;2.60;69.30
78623;BME280;67943;54.412;9.502;2023-02-28T06:43:52;103092.69;;;2.50;68.62
78623;BME280;67943;54.412;9.502;2023-02-28T06:48:53;103097.00;;;2.50;69.59
78623;BME280;67943;54.412;9.502;2023-02-28T06:53:56;103098.13;;;2.55;70.86
78623;BME280;67943;54.412;9.502;2023-02-28T06:58:58;103113.59;;;2.71;71.15
78623;BME280;67943;54.412;9.502;2023-02-28T07:03:59;103111.59;;;2.83;70.53
78623;BME280;67943;54.412;9.502;2023-02-28T07:09:02;103105.69;;;3.05;70.68
78623;BME280;67943;54.412;9.502;2023-02-28T07:14:05;103112.53;;;3.22;70.57
78623;BME280;67943;54.412;9.502;2023-02-28T07:19:06;103118.16;;;3.31;70.16
78623;BME280;67943;54.412;9.502;2023-02-28T07:24:09;103119.91;;;3.52;70.22
78623;BME280;67943;54.412;9.502;2023-02-28T07:29:11;103116.81;;;3.80;70.77
78623;BME280;67943;54.412;9.502;2023-02-28T07:34:12;103118.44;;;4.18;70.24
78623;BME280;67943;54.412;9.502;2023-02-28T07:39:15;103107.56;;;4.49;69.72
78623;BME280;67943;54.412;9.502;2023-02-28T07:44:17;103123.78;;;4.85;68.63
78623;BME280;67943;54.412;9.502;2023-02-28T07:49:18;103124.59;;;5.06;67.98
78623;BME280;67943;54.412;9.502;2023-02-28T07:54:21;103128.72;;;5.23;67.14
78623;BME280;67943;54.412;9.502;2023-02-28T07:59:23;103126.44;;;5.32;66.71
78623;BME280;67943;54.412;9.502;2023-02-28T08:04:25;103123.41;;;5.44;66.34
78623;BME280;67943;54.412;9.502;2023-02-28T08:09:28;103124.25;;;5.21;67.27
78623;BME280;67943;54.412;9.502;2023-02-28T08:14:30;103125.63;;;5.33;67.06
78623;BME280;67943;54.412;9.502;2023-02-28T08:19:31;103136.53;;;5.46;67.01
78623;BME280;67943;54.412;9.502;2023-02-28T08:24:34;103135.19;;;6.04;64.98
78623;BME280;67943;54.412;9.502;2023-02-28T08:29:36;103126.53;;;5.83;65.55
78623;BME280;67943;54.412;9.502;2023-02-28T08:34:39;103122.47;;;6.42;64.45
78623;BME280;67943;54.412;9.502;2023-02-28T08:39:42;103118.75;;;7.18;62.68
78623;BME280;67943;54.412;9.502;2023-02-28T08:44:44;103127.31;;;7.42;60.74
78623;BME280;67943;54.412;9.502;2023-02-28T08:49:45;103123.97;;;7.79;60.68
78623;BME280;67943;54.412;9.502;2023-02-28T08:54:49;103129.47;;;8.23;59.20
78623;BME280;67943;54.412;9.502;2023-02-28T08:59:50;103129.81;;;8.35;57.68
78623;BME280;67943;54.412;9.502;2023-02-28T09:04:52;103131.97;;;8.89;56.24
78623;BME280;67943;54.412;9.502;2023-02-28T09:09:54;103126.13;;;9.02;56.20
78623;BME280;67943;54.412;9.502;2023-02-28T09:14:57;103138.13;;;9.30;54.11
78623;BME280;67943;54.412;9.502;2023-02-28T09:19:59;103137.97;;;9.22;53.68
78623;BME280;67943;54.412;9.502;2023-02-28T09:25:02;103143.53;;;9.81;52.98
78623;BME280;67943;54.412;9.502;2023-02-28T09:30:04;103141.88;;;10.33;51.80
78623;BME280;67943;54.412;9.502;2023-02-28T09:35:07;103141.91;;;10.92;50.56
78623;BME280;67943;54.412;9.502;2023-02-28T09:40:15;103140.69;;;11.33;48.38
78623;BME280;67943;54.412;9.502;2023-02-28T09:45:23;103154.00;;;11.42;46.62
78623;BME280;67943;54.412;9.502;2023-02-28T09:50:31;103149.44;;;12.03;46.35
78623;BME280;67943;54.412;9.502;2023-02-28T09:55:40;103145.56;;;12.63;44.96
78623;BME280;67943;54.412;9.502;2023-02-28T10:00:43;103153.88;;;13.20;44.62
78623;BME280;67943;54.412;9.502;2023-02-28T10:05:50;103147.09;;;14.19;43.03
78623;BME280;67943;54.412;9.502;2023-02-28T10:10:57;103149.66;;;15.24;39.45
78623;BME280;67943;54.412;9.502;2023-02-28T10:16:01;103141.47;;;15.76;39.46
78623;BME280;67943;54.412;9.502;2023-02-28T10:21:05;103137.81;;;16.98;37.12
78623;BME280;67943;54.412;9.502;2023-02-28T10:26:12;103148.13;;;17.25;35.78
78623;BME280;67943;54.412;9.502;2023-02-28T10:31:17;103146.00;;;17.51;35.28
78623;BME280;67943;54.412;9.502;2023-02-28T10:36:20;103137.66;;;18.36;35.66
78623;BME280;67943;54.412;9.502;2023-02-28T10:41:31;103144.22;;;18.70;34.48
78623;BME280;67943;54.412;9.502;2023-02-28T10:46:34;103141.66;;;18.10;33.92
78623;BME280;67943;54.412;9.502;2023-02-28T10:51:38;103149.94;;;16.30;36.38
78623;BME280;67943;54.412;9.502;2023-02-28T10:56:41;103148.84;;;14.15;40.30
78623;BME280;67943;54.412;9.502;2023-02-28T11:01:44;103143.97;;;12.90;43.31
78623;BME280;67943;54.412;9.502;2023-02-28T11:06:56;103135.59;;;13.96;43.20
78623;BME280;67943;54.412;9.502;2023-02-28T11:12:00;103131.53;;;17.74;36.01
78623;BME280;67943;54.412;9.502;2023-02-28T11:17:13;103128.94;;;19.65;32.66
78623;BME280;67943;54.412;9.502;2023-02-28T11:22:18;103130.22;;;19.04;32.55
78623;BME280;67943;54.412;9.502;2023-02-28T11:27:26;103120.44;;;17.40;35.17
78623;BME280;67943;54.412;9.502;2023-02-28T11:32:48;103125.03;;;20.52;32.12
78623;BME280;67943;54.412;9.502;2023-02-28T11:37:50;103116.63;;;20.32;31.35
78623;BME280;67943;54.412;9.502;2023-02-28T11:42:59;103112.44;;;16.65;35.67
78623;BME280;67943;54.412;9.502;2023-02-28T11:48:09;103107.19;;;15.30;38.09
78623;BME280;67943;54.412;9.502;2023-02-28T11:53:22;103099.63;;;18.26;34.02
78623;BME280;67943;54.412;9.502;2023-02-28T11:58:35;103088.41;;;18.56;33.35
78623;BME280;67943;54.412;9.502;2023-02-28T12:03:45;103092.88;;;19.84;31.15
78623;BME280;67943;54.412;9.502;2023-02-28T12:09:02;103092.63;;;22.11;28.90
78623;BME280;67943;54.412;9.502;2023-02-28T12:14:22;103082.59;;;24.48;25.27
78623;BME280;67943;54.412;9.502;2023-02-28T12:19:31;103081.22;;;23.29;25.75
78623;BME280;67943;54.412;9.502;2023-02-28T12:30:04;103064.16;;;25.74;23.36
78623;BME280;67943;54.412;9.502;2023-02-28T12:35:12;103057.72;;;26.47;23.51
78623;BME280;67943;54.412;9.502;2023-02-28T12:40:19;103052.94;;;23.19;25.43
78623;BME280;67943;54.412;9.502;2023-02-28T12:45:24;103049.31;;;21.12;28.71
78623;BME280;67943;54.412;9.502;2023-02-28T12:50:27;103033.56;;;23.11;27.07
78623;BME280;67943;54.412;9.502;2023-02-28T12:55:36;103037.78;;;23.63;26.62
78623;BME280;67943;54.412;9.502;2023-02-28T13:00:46;103029.25;;;23.74;25.96
78623;BME280;67943;54.412;9.502;2023-02-28T13:06:03;103027.13;;;25.04;25.08
78623;BME280;67943;54.412;9.502;2023-02-28T13:11:06;103027.13;;;24.24;25.21
78623;BME280;67943;54.412;9.502;2023-02-28T13:16:10;103021.53;;;24.29;24.98
78623;BME280;67943;54.412;9.502;2023-02-28T13:21:23;103013.88;;;21.04;28.43
78623;BME280;67943;54.412;9.502;2023-02-28T13:32:37;103009.50;;;22.11;27.88
78623;BME280;67943;54.412;9.502;2023-02-28T13:37:42;103005.25;;;23.47;26.38
78623;BME280;67943;54.412;9.502;2023-02-28T13:42:47;103005.94;;;24.37;25.26
78623;BME280;67943;54.412;9.502;2023-02-28T13:47:57;103001.59;;;23.05;25.98
78623;BME280;67943;54.412;9.502;2023-02-28T13:58:44;102999.44;;;23.36;26.16
78623;BME280;67943;54.412;9.502;2023-02-28T14:04:14;102999.75;;;23.29;26.22
78623;BME280;67943;54.412;9.502;2023-02-28T14:09:23;102998.88;;;23.28;26.57
78623;BME280;67943;54.412;9.502;2023-02-28T14:14:53;102992.88;;;23.43;26.16
78623;BME280;67943;54.412;9.502;2023-02-28T14:19:57;102982.81;;;23.27;26.84
78623;BME280;67943;54.412;9.502;2023-02-28T14:25:08;102987.84;;;23.58;26.96
78623;BME280;67943;54.412;9.502;2023-02-28T14:35:49;102975.31;;;22.89;26.79
78623;BME280;67943;54.412;9.502;2023-02-28T14:40:54;102983.56;;;21.85;28.42
78623;BME280;67943;54.412;9.502;2023-02-28T14:45:59;102978.41;;;20.01;30.85
78623;BME280;67943;54.412;9.502;2023-02-28T14:51:03;102970.41;;;20.01;30.92
78623;BME280;67943;54.412;9.502;2023-02-28T14:56:05;102968.06;;;18.76;32.48
78623;BME280;67943;54.412;9.502;2023-02-28T15:01:10;102962.72;;;18.76;32.54
78623;BME280;67943;54.412;9.502;2023-02-28T15:06:15;102967.69;;;18.02;33.32
78623;BME280;67943;54.412;9.502;2023-02-28T15:11:18;102964.78;;;18.62;33.08
78623;BME280;67943;54.412;9.502;2023-02-28T15:16:25;102968.44;;;19.37;32.23
78623;BME280;67943;54.412;9.502;2023-02-28T15:21:33;102958.53;;;19.79;31.49
78623;BME280;67943;54.412;9.502;2023-02-28T15:26:39;102950.63;;;20.08;31.25
78623;BME280;67943;54.412;9.502;2023-02-28T15:31:43;102956.06;;;19.34;31.97
78623;BME280;67943;54.412;9.502;2023-02-28T15:36:47;102956.53;;;18.74;33.13
78623;BME280;67943;54.412;9.502;2023-02-28T15:41:49;102954.53;;;18.84;33.28
78623;BME280;67943;54.412;9.502;2023-02-28T15:46:55;102951.97;;;18.79;33.32
78623;BME280;67943;54.412;9.502;2023-02-28T15:51:59;102949.88;;;18.94;32.59
78623;BME280;67943;54.412;9.502;2023-02-28T15:57:04;102954.88;;;18.22;34.05
78623;BME280;67943;54.412;9.502;2023-02-28T16:02:14;102959.59;;;16.23;37.30
78623;BME280;67943;54.412;9.502;2023-02-28T16:07:19;102949.13;;;14.93;39.87
78623;BME280;67943;54.412;9.502;2023-02-28T16:12:25;102945.94;;;13.82;42.46
78623;BME280;67943;54.412;9.502;2023-02-28T16:17:28;102959.00;;;12.90;44.59
78623;BME280;67943;54.412;9.502;2023-02-28T16:22:31;102952.56;;;12.27;47.49
78623;BME280;67943;54.412;9.502;2023-02-28T16:27:35;102968.06;;;11.78;49.40
78623;BME280;67943;54.412;9.502;2023-02-28T16:32:38;102961.59;;;11.45;50.44
78623;BME280;67943;54.412;9.502;2023-02-28T16:37:41;102964.91;;;11.23;51.18
78623;BME280;67943;54.412;9.502;2023-02-28T16:42:43;102964.53;;;10.90;52.32
78623;BME280;67943;54.412;9.502;2023-02-28T16:47:46;102971.25;;;10.66;52.75
78623;BME280;67943;54.412;9.502;2023-02-28T16:52:50;102976.09;;;10.34;53.89
78623;BME280;67943;54.412;9.502;2023-02-28T16:57:56;102985.31;;;10.08;54.53
78623;BME280;67943;54.412;9.502;2023-02-28T17:02:58;102981.75;;;10.04;54.85
78623;BME280;67943;54.412;9.502;2023-02-28T17:08:01;102992.81;;;9.85;55.50
78623;BME280;67943;54.412;9.502;2023-02-28T17:13:03;103001.38;;;9.72;55.67
78623;BME280;67943;54.412;9.502;2023-02-28T17:18:09;102995.50;;;9.37;56.50
78623;BME280;67943;54.412;9.502;2023-02-28T17:23:16;103000.25;;;9.11;56.81
78623;BME280;67943;54.412;9.502;2023-02-28T17:28:17;102999.66;;;8.80;57.24
78623;BME280;67943;54.412;9.502;2023-02-28T17:33:19;103012.19;;;8.53;57.64
78623;BME280;67943;54.412;9.502;2023-02-28T17:38:21;103014.41;;;8.35;57.96
78623;BME280;67943;54.412;9.502;2023-02-28T17:43:24;103027.97;;;8.19;58.73
78623;BME280;67943;54.412;9.502;2023-02-28T17:48:26;103029.28;;;8.01;59.11
78623;BME280;67943;54.412;9.502;2023-02-28T17:53:29;103032.19;;;8.13;59.83
78623;BME280;67943;54.412;9.502;2023-02-28T17:58:30;103024.72;;;8.29;59.67
78623;BME280;67943;54.412;9.502;2023-02-28T18:03:32;103034.75;;;8.10;60.60
78623;BME280;67943;54.412;9.502;2023-02-28T18:08:36;103026.44;;;7.92;61.35
78623;BME280;67943;54.412;9.502;2023-02-28T18:13:37;103029.50;;;7.74;61.97
78623;BME280;67943;54.412;9.502;2023-02-28T18:18:39;103037.16;;;7.67;62.10
78623;BME280;67943;54.412;9.502;2023-02-28T18:23:42;103039.81;;;7.68;62.20
78623;BME280;67943;54.412;9.502;2023-02-28T18:28:47;103030.31;;;7.72;62.32
78623;BME280;67943;54.412;9.502;2023-02-28T18:33:50;103029.41;;;7.71;62.43
78623;BME280;67943;54.412;9.502;2023-02-28T18:38:54;103033.44;;;7.59;62.56
78623;BME280;67943;54.412;9.502;2023-02-28T18:43:55;103039.88;;;7.38;63.22
78623;BME280;67943;54.412;9.502;2023-02-28T18:48:57;103027.38;;;7.28;63.54
78623;BME280;67943;54.412;9.502;2023-02-28T18:54:00;103025.75;;;7.02;63.59
78623;BME280;67943;54.412;9.502;2023-02-28T18:59:01;103032.63;;;6.68;64.79
78623;BME280;67943;54.412;9.502;2023-02-28T19:04:03;103031.88;;;6.44;64.98
78623;BME280;67943;54.412;9.502;2023-02-28T19:09:07;103038.13;;;6.21;64.62
78623;BME280;67943;54.412;9.502;2023-02-28T19:14:09;103041.88;;;6.02;64.65
78623;BME280;67943;54.412;9.502;2023-02-28T19:19:11;103040.25;;;5.82;64.58
78623;BME280;67943;54.412;9.502;2023-02-28T19:24:14;103040.81;;;5.71;65.76
78623;BME280;67943;54.412;9.502;2023-02-28T19:29:16;103043.38;;;5.70;65.77
78623;BME280;67943;54.412;9.502;2023-02-28T19:34:17;103035.00;;;5.55;67.68
78623;BME280;67943;54.412;9.502;2023-02-28T19:39:20;103042.19;;;5.36;66.66
78623;BME280;67943;54.412;9.502;2023-02-28T19:44:21;103044.16;;;5.18;66.33
78623;BME280;67943;54.412;9.502;2023-02-28T19:49:23;103052.41;;;5.06;66.41
78623;BME280;67943;54.412;9.502;2023-02-28T19:54:26;103049.31;;;4.94;66.38
78623;BME280;67943;54.412;9.502;2023-02-28T19:59:28;103051.50;;;4.82;66.73
78623;BME280;67943;54.412;9.502;2023-02-28T20:04:29;103050.97;;;4.68;66.29
78623;BME280;67943;54.412;9.502;2023-02-28T20:09:32;103054.00;;;4.57;67.78
78623;BME280;67943;54.412;9.502;2023-02-28T20:14:34;103048.34;;;4.46;66.95
78623;BME280;67943;54.412;9.502;2023-02-28T20:19:35;103050.59;;;4.37;67.26
78623;BME280;67943;54.412;9.502;2023-02-28T20:24:38;103052.91;;;4.29;67.67
78623;BME280;67943;54.412;9.502;2023-02-28T20:29:40;103052.53;;;4.20;67.42
78623;BME280;67943;54.412;9.502;2023-02-28T20:34:41;103045.03;;;4.07;66.50
78623;BME280;67943;54.412;9.502;2023-02-28T20:39:44;103050.50;;;3.92;67.31
78623;BME280;67943;54.412;9.502;2023-02-28T20:44:46;103047.78;;;3.89;68.21
78623;BME280;67943;54.412;9.502;2023-02-28T20:49:48;103046.69;;;3.84;68.55
78623;BME280;67943;54.412;9.502;2023-02-28T20:54:51;103037.84;;;3.81;69.54
78623;BME280;67943;54.412;9.502;2023-02-28T20:59:53;103044.59;;;3.76;69.29
78623;BME280;67943;54.412;9.502;2023-02-28T21:04:54;103039.97;;;3.68;68.62
78623;BME280;67943;54.412;9.502;2023-02-28T21:09:57;103034.22;;;3.56;68.14
78623;BME280;67943;54.412;9.502;2023-02-28T21:14:59;103031.19;;;3.46;68.30
78623;BME280;67943;54.412;9.502;2023-02-28T21:20:00;103040.28;;;3.36;68.54
78623;BME280;67943;54.412;9.502;2023-02-28T21:25:04;103035.69;;;3.30;68.45
78623;BME280;67943;54.412;9.502;2023-02-28T21:30:07;103034.69;;;3.27;68.32
78623;BME280;67943;54.412;9.502;2023-02-28T21:35:09;103025.91;;;3.25;69.30
78623;BME280;67943;54.412;9.502;2023-02-28T21:40:12;103030.22;;;3.24;68.94
78623;BME280;67943;54.412;9.502;2023-02-28T21:45:21;103023.38;;;3.26;70.51
78623;BME280;67943;54.412;9.502;2023-02-28T21:50:23;103026.25;;;3.32;71.77
78623;BME280;67943;54.412;9.502;2023-02-28T21:55:25;103030.78;;;3.36;73.13
78623;BME280;67943;54.412;9.502;2023-02-28T22:00:27;103044.75;;;3.38;73.44
78623;BME280;67943;54.412;9.502;2023-02-28T22:05:28;103033.44;;;3.38;74.37
78623;BME280;67943;54.412;9.502;2023-02-28T22:10:32;103032.56;;;3.37;74.73
78623;BME280;67943;54.412;9.502;2023-02-28T22:15:35;103034.34;;;3.38;75.59
78623;BME280;67943;54.412;9.502;2023-02-28T22:20:36;103038.78;;;3.41;75.71
78623;BME280;67943;54.412;9.502;2023-02-28T22:25:39;103032.28;;;3.31;75.71
78623;BME280;67943;54.412;9.502;2023-02-28T22:30:41;103041.13;;;3.35;75.78
78623;BME280;67943;54.412;9.502;2023-02-28T22:35:42;103049.69;;;3.32;75.22
78623;BME280;67943;54.412;9.502;2023-02-28T22:40:45;103055.97;;;3.18;75.68
78623;BME280;67943;54.412;9.502;2023-02-28T22:45:46;103053.72;;;3.07;75.61
78623;BME280;67943;54.412;9.502;2023-02-28T22:50:48;103053.44;;;3.00;75.57
78623;BME280;67943;54.412;9.502;2023-02-28T22:55:54;103048.69;;;2.92;75.96
78623;BME280;67943;54.412;9.502;2023-02-28T23:00:55;103049.56;;;2.73;76.29
78623;BME280;67943;54.412;9.502;2023-02-28T23:06:11;103040.13;;;2.56;76.92
78623;BME280;67943;54.412;9.502;2023-02-28T23:11:18;103048.00;;;2.40;76.62
78623;BME280;67943;54.412;9.502;2023-02-28T23:16:20;103043.78;;;2.24;76.65
78623;BME280;67943;54.412;9.502;2023-02-28T23:21:21;103047.56;;;2.13;76.73
78623;BME280;67943;54.412;9.502;2023-02-28T23:26:24;103041.91;;;2.03;76.66
78623;BME280;67943;54.412;9.502;2023-02-28T23:31:26;103045.13;;;1.98;76.38
78623;BME280;67943;54.412;9.502;2023-02-28T23:36:27;103045.84;;;1.95;76.40
78623;BME280;67943;54.412;9.502;2023-02-28T23:41:30;103061.03;;;2.06;76.91
78623;BME280;67943;54.412;9.502;2023-02-28T23:46:31;103052.25;;;2.20;75.31
78623;BME280;67943;54.412;9.502;2023-02-28T23:51:33;103051.84;;;2.12;74.88
78623;BME280;67943;54.412;9.502;2023-02-28T23:56:36;103046.91;;;1.99;75.11
